Sunday, October 21, 2018, 4:41 PM GMT
Back to Local

CWWZ, Port Weller, Ont.

Location: , , Canada Lat: 43.25
Local Time: 4:41 PM GMT (16:41 GMT) Lon: -79.217
Time Zone: GMT Elev: 259 ft

Show me the last for .
Show Coded

Time T Td Feel RH Dir Speed Gust Alt SLP Vis Weather Sky Remarks
2018-10-21 16:00 42 32 31 67 300° 21 28 - 30.19 0 Peak wind: 35 mph (31 kts) from 290° at 49 min
2018-10-21 15:00 42 32 31 66 300° 22 30 - 30.19 0 Peak wind: 29 mph (26 kts) from 300° at 59 min
2018-10-21 14:00 41 33 32 73 310° 22 - - 30.19 0 Peak wind: 27 mph (24 kts) from 300° at 49 min
2018-10-21 13:00 41 35 31 78 340° 14 21 - 30.17 0 Peak wind: 24 mph (21 kts) from 330° at 00 min
2018-10-21 12:00 39 32 29 75 330° 16 23 - 30.14 0 Peak wind: 25 mph (22 kts) from 330° at 41 min
2018-10-21 11:00 39 31 28 72 330° 23 29 - 30.11 0 Peak wind: 29 mph (26 kts) from 320° at 43 min
2018-10-21 10:00 39 31 28 70 330° 20 29 - 30.08 0 Peak wind: 28 mph (25 kts) from 320° at 57 min
2018-10-21 09:00 38 31 26 76 330° 22 29 - 30.05 0 Peak wind: 32 mph (28 kts) from 320° at 22 min
2018-10-21 08:00 41 31 30 68 340° 25 32 - 30.00 0 Peak wind: 37 mph (33 kts) from 320° at 25 min
2018-10-21 07:00 43 36 31 75 330° 30 38 - 29.97 0 Peak wind: 37 mph (33 kts) from 340° at 57 min
2018-10-21 06:00 42 35 32 77 340° 25 - - 29.92 0 Peak wind: 34 mph (30 kts) from 340° at 22 min
2018-10-21 05:00 44 35 34 67 350° 23 30 - 29.88 0 Peak wind: 36 mph (32 kts) from 330° at 01 min
2018-10-21 04:00 46 37 36 72 340° 28 33 - 29.84 0 Peak wind: 35 mph (31 kts) from 340° at 02 min
2018-10-21 03:00 47 39 37 72 340° 29 36 - 29.79 0 Peak wind: 35 mph (31 kts) from 340° at 52 min
2018-10-21 02:00 47 38 37 70 350° 24 31 - 29.76 0 Peak wind: 31 mph (27 kts) from 350° at 52 min
2018-10-21 01:00 47 40 39 76 360° 25 - - 29.72 0 Peak wind: 29 mph (26 kts) from 350° at 54 min
1-hr Precip Total: 0.07"
2018-10-21 00:00 46 43 - 89 240° 1 - - 29.69 0 1-hr Precip Total: 0.01"
2018-10-20 23:00 47 43 44 86 200° 6 - - 29.66 0 None
2018-10-20 22:00 47 43 43 87 210° 8 - - 29.63 0 None
2018-10-20 21:00 52 40 - 65 210° 3 - - 29.61 0 None
2018-10-20 20:00 52 40 - 63 280° 8 - - 29.61 0 None
2018-10-20 19:00 53 42 - 65 240° 2 - - 29.60 0 None
2018-10-20 18:00 53 43 - 70 220° 6 - - 29.63 0 Peak wind: 23 mph (20 kts) from 270° at 28 min
2018-10-20 17:00 55 41 - 59 320° 10 - - 29.65 0 None

Support USWX by starting your Amazon purchase here.